Cambria Heights, New York
Current Conditions -  °F | °C
As of 6:51 AM on Wednesday 28 Jan 2015 (Local Time) from KJFK Reporting Station
Few Clouds Few Clouds  
Wind Chill:   Ceiling: Unl
Heat Index: 18°   Visibility: 10mi
Dew Point:   Wind: 17mph
Humidity: 45%   Direction: 310°NW
Pressure: 29.98"   Gusts: 25mph
Location:  40.69°N, 73.74°W
Report Text: KJFK 281151Z 31015G22KT 10SM FEW130 M08/M18 A2998 RMK AO2 SLP152 4/010 70003 T10781178 11072 21083 53021 $
Loading
Personal Weather Stations






























Interactive Weather Map New forecast layout! Learn more

10-Day Weather Forecast

Advertisements
Track Severe Weather on mobile